Time;durP1;ratioP1;P1;durP2;ratioP2;P2;SDS_P1;SDS_P2;PMS_P1;PMS_P2;Temp;Humidity;BMP_temperature;BMP_pressure;BME280_temperature;BME280_humidity;BME280_pressure;Samples;Min_cycle;Max_cycle;Signal;HPM_P1;HPM_P2
2023/04/20 00:00:28;;;;;;;4.80;1.90;;;;;;;8.02;100.00;102559.09;4992856;28;20483;-80
2023/04/20 00:02:55;;;;;;;3.95;1.83;;;;;;;8.01;100.00;102550.31;4980995;28;20052;-78
2023/04/20 00:05:23;;;;;;;4.45;2.10;;;;;;;8.00;100.00;102548.53;5004013;28;20163;-80
2023/04/20 00:07:50;;;;;;;6.07;2.78;;;;;;;7.98;100.00;102530.09;5028400;28;20048;-80
2023/04/20 00:10:17;;;;;;;4.53;2.00;;;;;;;7.98;100.00;102531.81;4996237;28;20426;-80
2023/04/20 00:12:45;;;;;;;7.20;2.40;;;;;;;7.97;100.00;102533.53;5021360;28;20057;-80
2023/04/20 00:15:13;;;;;;;3.05;1.92;;;;;;;7.96;100.00;102531.75;4991424;28;20042;-80
2023/04/20 00:17:40;;;;;;;3.47;1.83;;;;;;;7.96;100.00;102528.25;5024843;28;20049;-80
2023/04/20 00:20:08;;;;;;;5.63;1.75;;;;;;;7.97;100.00;102528.28;4978706;28;20057;-79
2023/04/20 00:22:36;;;;;;;3.47;2.38;;;;;;;7.95;100.00;102510.69;5059258;28;20053;-80
2023/04/20 00:25:03;;;;;;;2.70;1.85;;;;;;;7.96;100.00;102512.50;5010709;28;20060;-80
2023/04/20 00:27:31;;;;;;;5.65;2.08;;;;;;;7.97;100.00;102516.91;5024231;28;20036;-81
2023/04/20 00:29:58;;;;;;;2.53;1.90;;;;;;;7.96;100.00;102517.75;5026284;28;20045;-79
2023/04/20 00:32:27;;;;;;;4.97;1.77;;;;;;;7.95;100.00;102514.19;5012479;28;20058;-79
2023/04/20 00:34:55;;;;;;;3.28;2.00;;;;;;;7.94;100.00;102508.88;4988389;28;20050;-79
2023/04/20 00:37:24;;;;;;;4.85;1.98;;;;;;;7.91;100.00;102504.41;5016061;28;20042;-79
2023/04/20 00:39:54;;;;;;;2.38;2.00;;;;;;;7.88;100.00;102490.28;5008730;28;20118;-78
2023/04/20 00:42:23;;;;;;;5.75;2.22;;;;;;;7.83;100.00;102482.22;5012536;28;20060;-79
2023/04/20 00:44:52;;;;;;;9.25;2.53;;;;;;;7.80;100.00;102493.47;5003614;28;20064;-78
2023/04/20 00:47:21;;;;;;;2.50;1.92;;;;;;;7.76;100.00;102482.81;5045586;28;20052;-79
2023/04/20 00:49:49;;;;;;;4.68;2.22;;;;;;;7.73;100.00;102483.59;5009878;28;20415;-79
2023/04/20 00:52:18;;;;;;;2.60;1.73;;;;;;;7.73;100.00;102478.34;4981839;28;20049;-80
2023/04/20 00:54:45;;;;;;;2.83;1.70;;;;;;;7.73;100.00;102480.97;5015771;28;20075;-81
2023/04/20 00:57:18;;;;;;;6.72;1.98;;;;;;;7.75;100.00;102474.03;4995663;28;20050;-79
2023/04/20 00:59:45;;;;;;;1.45;1.35;;;;;;;7.79;100.00;102478.56;5002620;28;20045;-79
2023/04/20 01:02:13;;;;;;;4.82;2.63;;;;;;;7.79;100.00;102473.31;5008801;28;20057;-79
2023/04/20 01:04:46;;;;;;;4.32;1.63;;;;;;;7.81;100.00;102460.28;5012214;28;20054;-79
2023/04/20 01:07:13;;;;;;;4.25;1.55;;;;;;;7.81;100.00;102468.16;4995559;28;20056;-79
2023/04/20 01:09:42;;;;;;;4.43;1.67;;;;;;;7.80;100.00;102454.09;4983971;28;20064;-79
2023/04/20 01:12:10;;;;;;;3.03;1.67;;;;;;;7.80;100.00;102453.22;5022706;28;20056;-80
2023/04/20 01:14:39;;;;;;;4.18;2.00;;;;;;;7.78;100.00;102450.53;5018970;28;20057;-80
2023/04/20 01:17:06;;;;;;;7.65;1.95;;;;;;;7.76;100.00;102438.19;5029451;28;20048;-80
2023/04/20 01:19:34;;;;;;;5.45;2.10;;;;;;;7.72;100.00;102431.91;5014873;28;20064;-79
2023/04/20 01:22:01;;;;;;;5.00;1.92;;;;;;;7.71;100.00;102421.34;4987518;28;20093;-79
2023/04/20 01:24:29;;;;;;;4.85;2.17;;;;;;;7.67;100.00;102417.72;5032500;28;20076;-79
2023/04/20 01:26:58;;;;;;;3.85;1.80;;;;;;;7.64;100.00;102412.34;5011533;28;20046;-79
2023/04/20 01:29:27;;;;;;;6.03;2.28;;;;;;;7.62;100.00;102411.41;5026117;28;20033;-79
2023/04/20 01:31:54;;;;;;;4.45;1.90;;;;;;;7.60;100.00;102402.59;5010924;28;20065;-79
2023/04/20 01:34:21;;;;;;;3.05;2.35;;;;;;;7.58;100.00;102404.22;5012402;28;20049;-80
2023/04/20 01:36:49;;;;;;;4.97;2.10;;;;;;;7.57;100.00;102408.56;4997642;28;20042;-79
2023/04/20 01:39:16;;;;;;;6.95;1.90;;;;;;;7.55;100.00;102399.75;5008112;28;20538;-80
2023/04/20 01:41:44;;;;;;;4.22;1.80;;;;;;;7.55;100.00;102394.50;5039121;28;20506;-80
2023/04/20 01:44:11;;;;;;;5.47;2.42;;;;;;;7.55;100.00;102391.88;5021553;28;20463;-80
2023/04/20 01:46:39;;;;;;;4.38;1.70;;;;;;;7.55;100.00;102391.00;5032573;28;20056;-80
2023/04/20 01:49:07;;;;;;;6.60;2.00;;;;;;;7.53;100.00;102392.66;5009835;28;20057;-80
2023/04/20 01:51:36;;;;;;;4.72;2.10;;;;;;;7.52;100.00;102388.25;5000447;28;20068;-80
2023/04/20 01:54:03;;;;;;;3.17;2.00;;;;;;;7.51;100.00;102375.97;4988999;28;20052;-79
2023/04/20 01:56:30;;;;;;;5.60;2.15;;;;;;;7.49;100.00;102373.28;4997245;28;20045;-78
2023/04/20 01:58:57;;;;;;;4.72;2.00;;;;;;;7.47;100.00;102374.94;5000508;28;20065;-78
2023/04/20 02:01:26;;;;;;;4.60;2.00;;;;;;;7.45;100.00;102367.81;4983382;28;20049;-79
2023/04/20 02:03:53;;;;;;;5.50;2.00;;;;;;;7.45;100.00;102370.44;5013351;28;20525;-79
2023/04/20 02:06:21;;;;;;;6.97;1.85;;;;;;;7.42;100.00;102374.75;4983059;28;20057;-79
2023/04/20 02:08:48;;;;;;;3.72;2.30;;;;;;;7.44;100.00;102366.06;4960107;28;20060;-79
2023/04/20 02:11:15;;;;;;;9.32;2.95;;;;;;;7.42;100.00;102356.38;5011943;28;20064;-79
2023/04/20 02:13:42;;;;;;;5.50;2.05;;;;;;;7.41;100.00;102341.50;5026088;28;20473;-79
2023/04/20 02:16:10;;;;;;;4.93;2.63;;;;;;;7.41;100.00;102345.88;5001287;28;20042;-79
2023/04/20 02:18:38;;;;;;;6.20;2.03;;;;;;;7.40;100.00;102350.19;5013360;28;20042;-79
2023/04/20 02:21:05;;;;;;;8.45;2.22;;;;;;;7.40;100.00;102338.81;5009563;28;20046;-79
2023/04/20 02:23:33;;;;;;;2.28;2.05;;;;;;;7.40;100.00;102334.44;4986555;28;20045;-79
2023/04/20 02:26:00;;;;;;;6.55;2.53;;;;;;;7.41;100.00;102330.13;5022746;28;20057;-79
2023/04/20 02:28:27;;;;;;;3.85;2.00;;;;;;;7.42;100.00;102317.03;5014040;28;20617;-78
2023/04/20 02:30:55;;;;;;;4.78;1.95;;;;;;;7.45;100.00;102325.88;5017477;28;20049;-79
2023/04/20 02:33:22;;;;;;;9.65;2.47;;;;;;;7.48;100.00;102324.25;5032111;28;20057;-78
2023/04/20 02:35:52;;;;;;;5.60;2.05;;;;;;;7.51;100.00;102331.38;5022737;28;20057;-79
2023/04/20 02:38:20;;;;;;;3.92;2.35;;;;;;;7.56;100.00;102330.72;4975567;28;20049;-79
2023/04/20 02:40:47;;;;;;;5.57;2.80;;;;;;;7.60;100.00;102329.13;5031471;28;20049;-79
2023/04/20 02:43:16;;;;;;;3.80;2.50;;;;;;;7.64;100.00;102328.41;5013198;28;20529;-79
2023/04/20 02:45:43;;;;;;;3.60;2.08;;;;;;;7.66;100.00;102326.72;5031496;28;20061;-78
2023/04/20 02:48:12;;;;;;;3.92;2.10;;;;;;;7.69;100.00;102332.06;5018562;28;20053;-80
2023/04/20 02:50:41;;;;;;;3.80;2.08;;;;;;;7.70;100.00;102320.75;5010138;28;20060;-79
2023/04/20 02:53:20;;;;;;;5.28;2.25;;;;;;;7.73;100.00;102330.47;4983591;28;20064;-78
2023/04/20 02:56:06;;;;;;;3.70;2.05;;;;;;;7.73;100.00;102319.97;5034122;28;20140;-78
2023/04/20 02:58:53;;;;;;;7.53;2.67;;;;;;;7.73;100.00;102309.47;5015153;28;20049;-79
2023/04/20 03:01:31;;;;;;;6.47;1.90;;;;;;;7.73;100.00;102299.91;5020179;28;20406;-78
2023/04/20 03:04:05;;;;;;;6.70;2.20;;;;;;;7.74;100.00;102311.28;5006207;28;20669;-79
2023/04/20 03:06:39;;;;;;;3.67;2.17;;;;;;;7.73;100.00;102302.53;5030534;28;20067;-78
2023/04/20 03:09:10;;;;;;;6.25;2.38;;;;;;;7.73;100.00;102307.78;4962266;28;20037;-79
2023/04/20 03:11:54;;;;;;;6.53;2.10;;;;;;;7.74;100.00;102306.91;5029032;28;20064;-78
2023/04/20 03:14:41;;;;;;;4.13;2.13;;;;;;;7.75;100.00;102308.72;5029865;28;20049;-79
2023/04/20 03:17:08;;;;;;;5.55;2.22;;;;;;;7.75;100.00;102297.31;4999481;28;20049;-79
2023/04/20 03:19:35;;;;;;;2.60;1.77;;;;;;;7.75;100.00;102294.69;5029641;28;20049;-79
2023/04/20 03:22:04;;;;;;;6.55;2.22;;;;;;;7.75;100.00;102306.09;5010940;28;20080;-78
2023/04/20 03:24:33;;;;;;;5.25;1.83;;;;;;;7.76;100.00;102299.09;4977183;28;20049;-78
2023/04/20 03:27:07;;;;;;;5.10;1.85;;;;;;;7.76;100.00;102293.84;5011759;28;20070;-78
2023/04/20 03:29:49;;;;;;;5.03;1.98;;;;;;;7.75;100.00;102295.59;5015623;28;20052;-78
2023/04/20 03:32:17;;;;;;;4.30;1.90;;;;;;;7.76;100.00;102292.13;5005568;28;20064;-78
2023/04/20 03:34:44;;;;;;;3.03;1.83;;;;;;;7.78;100.00;102284.31;5012663;28;20061;-78
2023/04/20 03:37:11;;;;;;;4.78;1.70;;;;;;;7.79;100.00;102288.72;5028931;28;20053;-78
2023/04/20 03:39:39;;;;;;;4.07;1.95;;;;;;;7.80;100.00;102277.38;5011659;28;20053;-80
2023/04/20 03:42:06;;;;;;;4.65;1.73;;;;;;;7.80;100.00;102278.28;4990738;28;20073;-79
2023/04/20 03:44:34;;;;;;;2.15;1.70;;;;;;;7.81;100.00;102285.31;5032096;28;20526;-78
2023/04/20 03:47:04;;;;;;;4.40;1.50;;;;;;;7.85;100.00;102290.69;4999075;28;20746;-78
2023/04/20 03:49:35;;;;;;;2.47;1.52;;;;;;;7.84;99.90;102279.28;4982615;28;20053;-81
2023/04/20 03:52:04;;;;;;;1.88;1.42;;;;;;;7.84;98.67;102279.28;4960006;28;20133;-78
2023/04/20 03:54:32;;;;;;;8.00;1.70;;;;;;;7.85;98.46;102280.19;5030789;28;20057;-78
2023/04/20 03:57:01;;;;;;;2.65;1.38;;;;;;;7.81;94.43;102277.44;4992387;28;20052;-78
2023/04/20 03:59:28;;;;;;;2.80;1.60;;;;;;;7.81;95.83;102269.56;5013145;28;20053;-79
2023/04/20 04:01:57;;;;;;;3.50;1.60;;;;;;;7.80;95.86;102277.38;4985556;28;20050;-78
2023/04/20 04:04:25;;;;;;;1.55;1.45;;;;;;;7.76;95.42;102265.88;5036305;28;20057;-78
2023/04/20 04:06:53;;;;;;;5.85;1.35;;;;;;;7.74;95.07;102270.19;5014585;28;20048;-78
2023/04/20 04:09:21;;;;;;;2.55;1.30;;;;;;;7.71;93.20;102261.28;5016789;28;20044;-79
2023/04/20 04:11:48;;;;;;;4.00;1.85;;;;;;;7.69;95.35;102263.84;4988460;28;20072;-79
2023/04/20 04:14:16;;;;;;;2.78;1.45;;;;;;;7.66;95.32;102265.50;4994414;28;20046;-79
2023/04/20 04:16:43;;;;;;;3.60;1.90;;;;;;;7.61;93.81;102258.31;5029108;28;20064;-78
2023/04/20 04:19:12;;;;;;;3.40;1.70;;;;;;;7.60;94.35;102268.78;4999874;28;20045;-78
2023/04/20 04:21:40;;;;;;;3.83;1.58;;;;;;;7.58;94.65;102262.56;5020688;28;20061;-79
2023/04/20 04:24:08;;;;;;;5.78;1.50;;;;;;;7.54;94.22;102253.69;4992507;28;20053;-79
2023/04/20 04:26:57;;;;;;;4.15;1.60;;;;;;;7.53;94.13;102272.00;4986539;28;20057;-80
2023/04/20 04:29:26;;;;;;;3.28;1.90;;;;;;;7.50;93.73;102284.97;5012278;28;20079;-79
2023/04/20 04:31:59;;;;;;;4.63;2.08;;;;;;;7.49;92.99;102262.22;5007696;28;20060;-80
2023/04/20 04:34:28;;;;;;;4.85;1.73;;;;;;;7.50;93.12;102250.88;5018416;28;20418;-79
2023/04/20 04:36:56;;;;;;;2.67;1.50;;;;;;;7.49;93.71;102268.34;5008762;28;20068;-80
2023/04/20 04:39:36;;;;;;;4.32;1.75;;;;;;;7.47;93.71;102248.16;5024668;28;20058;-80
2023/04/20 04:42:11;;;;;;;2.72;1.83;;;;;;;7.46;92.71;102243.75;4992797;28;20053;-79
2023/04/20 04:44:41;;;;;;;5.22;1.80;;;;;;;7.46;93.69;102244.63;5031370;28;20049;-80
2023/04/20 04:47:13;;;;;;;3.08;1.60;;;;;;;7.46;93.75;102226.25;5013583;28;20054;-79
2023/04/20 04:49:44;;;;;;;3.50;1.90;;;;;;;7.45;93.71;102221.88;5006051;28;20042;-79
2023/04/20 04:52:12;;;;;;;;;;;;;;;7.44;89.04;102211.31;5017569;28;20076;-79
2023/04/20 04:54:39;;;;;;;3.55;1.50;;;;;;;7.42;92.93;102220.00;5014849;28;20298;-79
2023/04/20 04:57:07;;;;;;;2.45;1.38;;;;;;;7.41;93.44;102228.72;4992276;28;20049;-79
2023/04/20 04:59:35;;;;;;;4.03;1.80;;;;;;;7.44;93.81;102234.91;5003934;28;20061;-79
2023/04/20 05:02:03;;;;;;;2.58;1.98;;;;;;;7.44;94.91;102240.16;5030606;28;20045;-80
2023/04/20 05:04:30;;;;;;;3.25;1.70;;;;;;;7.41;95.24;102240.94;5009204;28;20048;-79
2023/04/20 05:06:58;;;;;;;3.83;1.70;;;;;;;7.39;96.88;102234.72;5012970;28;20056;-79
2023/04/20 05:09:32;;;;;;;3.55;2.03;;;;;;;7.34;98.69;102234.56;5041879;28;20034;-80
2023/04/20 05:11:59;;;;;;;8.07;2.03;;;;;;;7.30;100.00;102251.00;4967795;28;20053;-79
2023/04/20 05:14:27;;;;;;;2.95;1.60;;;;;;;7.23;100.00;102255.13;5017223;28;20054;-79
2023/04/20 05:16:54;;;;;;;5.40;1.80;;;;;;;7.09;100.00;102244.91;4982553;28;20057;-79
2023/04/20 05:19:22;;;;;;;1.58;1.48;;;;;;;6.99;100.00;102241.94;5005797;28;20056;-79
2023/04/20 05:21:49;;;;;;;3.92;1.38;;;;;;;6.93;100.00;102220.72;5008915;28;20057;-79
2023/04/20 05:24:18;;;;;;;2.75;1.73;;;;;;;6.90;100.00;102233.72;4986103;28;20049;-78
2023/04/20 05:26:45;;;;;;;1.95;1.77;;;;;;;6.89;100.00;102249.38;5016434;28;20392;-79
2023/04/20 05:29:15;;;;;;;4.45;2.53;;;;;;;6.87;100.00;102256.28;4989258;28;20064;-79
2023/04/20 05:31:44;;;;;;;6.10;2.55;;;;;;;6.87;100.00;102257.16;5032248;28;20057;-78
2023/04/20 05:34:11;;;;;;;4.57;2.05;;;;;;;6.87;100.00;102272.88;5014435;28;20064;-79
2023/04/20 05:36:39;;;;;;;3.22;2.13;;;;;;;6.87;100.00;102270.25;5009999;28;20049;-79
2023/04/20 05:39:07;;;;;;;4.70;2.50;;;;;;;6.91;100.00;102287.91;5039456;28;20049;-80
2023/04/20 05:41:35;;;;;;;5.65;1.88;;;;;;;6.92;100.00;102278.28;5005906;28;20053;-79
2023/04/20 05:44:02;;;;;;;2.92;1.85;;;;;;;6.92;100.00;102275.69;4966601;28;20062;-78
2023/04/20 05:46:30;;;;;;;4.68;2.28;;;;;;;6.94;100.00;102258.31;5019481;28;20052;-80
2023/04/20 05:48:57;;;;;;;9.93;2.03;;;;;;;6.92;100.00;102265.19;5007192;28;20054;-79
2023/04/20 05:51:29;;;;;;;5.72;2.53;;;;;;;6.93;100.00;102281.00;5019431;28;20086;-80
2023/04/20 05:53:56;;;;;;;2.08;1.60;;;;;;;6.93;100.00;102274.84;4992266;28;20049;-78
2023/04/20 05:56:23;;;;;;;4.07;1.92;;;;;;;6.93;100.00;102273.13;5024946;28;20041;-80
2023/04/20 05:58:51;;;;;;;4.82;1.70;;;;;;;6.93;100.00;102277.47;4976544;28;20034;-79
2023/04/20 06:01:19;;;;;;;4.03;2.08;;;;;;;6.91;100.00;102276.53;5007693;28;20061;-81
2023/04/20 06:03:47;;;;;;;5.80;1.70;;;;;;;6.90;100.00;102277.34;5038112;28;20053;-80
2023/04/20 06:06:15;;;;;;;5.65;1.75;;;;;;;6.89;100.00;102265.09;5013485;28;20053;-80
2023/04/20 06:08:43;;;;;;;1.70;1.55;;;;;;;6.90;100.00;102278.25;5000819;28;20138;-80
2023/04/20 06:11:10;;;;;;;1.70;1.60;;;;;;;6.88;100.00;102263.28;5012205;28;20045;-80
2023/04/20 06:13:39;;;;;;;4.70;1.70;;;;;;;6.86;100.00;102271.06;4965818;28;20068;-78
2023/04/20 06:16:09;;;;;;;3.78;1.88;;;;;;;6.82;100.00;102277.03;4998796;28;20502;-79
2023/04/20 06:18:37;;;;;;;3.28;1.63;;;;;;;6.80;100.00;102287.44;4981903;28;20426;-79
2023/04/20 06:21:04;;;;;;;4.55;2.05;;;;;;;6.79;100.00;102274.31;5001539;28;20061;-79
2023/04/20 06:23:31;;;;;;;2.92;1.88;;;;;;;6.82;100.00;102269.16;4988383;28;20045;-78
2023/04/20 06:25:59;;;;;;;4.05;1.50;;;;;;;6.79;100.00;102271.69;5021379;28;20052;-78
2023/04/20 06:28:26;;;;;;;4.35;1.65;;;;;;;6.74;100.00;102273.22;5021254;28;20060;-79
2023/04/20 06:30:54;;;;;;;4.85;1.73;;;;;;;6.72;100.00;102269.63;4947560;28;20038;-77
2023/04/20 06:33:21;;;;;;;4.57;1.90;;;;;;;6.68;100.00;102265.09;4997294;28;20038;-78
2023/04/20 06:35:50;;;;;;;4.35;1.90;;;;;;;6.63;100.00;102268.44;4994134;28;20050;-77
2023/04/20 06:38:17;;;;;;;2.35;1.70;;;;;;;6.58;100.00;102282.16;4968839;28;20080;-77
2023/04/20 06:40:46;;;;;;;1.70;1.60;;;;;;;6.50;100.00;102268.72;5013130;28;20052;-80
2023/04/20 06:43:14;;;;;;;3.22;2.20;;;;;;;6.40;100.00;102269.16;4982177;28;20557;-78
2023/04/20 06:45:41;;;;;;;4.63;2.30;;;;;;;6.33;100.00;102270.63;4987160;28;20061;-80
2023/04/20 06:48:09;;;;;;;5.45;1.90;;;;;;;6.27;100.00;102279.94;4980928;28;20053;-78
2023/04/20 06:50:56;;;;;;;2.50;1.90;;;;;;;6.22;100.00;102284.97;5028428;28;20034;-80
2023/04/20 06:53:23;;;;;;;2.88;2.30;;;;;;;6.16;100.00;102274.22;4993690;28;20049;-80
2023/04/20 06:55:54;;;;;;;4.70;2.15;;;;;;;6.13;100.00;102279.34;5007611;28;20495;-80
2023/04/20 06:58:21;;;;;;;;;;;;;;;6.05;100.00;102281.63;5001219;28;20406;-79
2023/04/20 07:00:49;;;;;;;11.38;2.42;;;;;;;6.00;100.00;102288.34;4987835;28;19933;-80
2023/04/20 07:03:17;;;;;;;7.15;2.67;;;;;;;5.94;100.00;102290.66;4992869;28;20499;-80
2023/04/20 07:05:45;;;;;;;3.90;2.35;;;;;;;5.89;100.00;102286.94;4984842;28;20058;-80
2023/04/20 07:08:14;;;;;;;6.00;2.42;;;;;;;5.84;100.00;102286.72;5018380;28;20037;-80
2023/04/20 07:10:42;;;;;;;5.35;2.05;;;;;;;5.77;100.00;102288.16;4997222;28;20056;-80
2023/04/20 07:13:09;;;;;;;3.50;2.33;;;;;;;5.75;100.00;102278.47;5005389;28;20052;-80
2023/04/20 07:15:37;;;;;;;2.63;2.30;;;;;;;5.75;100.00;102266.28;4997606;28;20049;-79
2023/04/20 07:18:05;;;;;;;3.88;2.22;;;;;;;5.78;100.00;102276.88;4974478;28;20050;-78
2023/04/20 07:20:32;;;;;;;2.70;2.42;;;;;;;5.78;100.00;102266.41;5013015;28;20057;-78
2023/04/20 07:23:00;;;;;;;5.15;2.63;;;;;;;5.77;100.00;102272.47;4975619;28;20053;-76
2023/04/20 07:25:28;;;;;;;3.85;2.65;;;;;;;5.78;100.00;102271.63;5014494;28;20053;-79
2023/04/20 07:27:55;;;;;;;3.40;2.40;;;;;;;5.79;100.00;102273.44;5008995;28;20046;-76
2023/04/20 07:30:24;;;;;;;4.45;2.25;;;;;;;5.82;100.00;102275.28;5013529;28;20037;-77
2023/04/20 07:32:52;;;;;;;3.00;2.45;;;;;;;5.83;100.00;102269.25;4985759;28;20045;-76
2023/04/20 07:35:19;;;;;;;4.28;2.05;;;;;;;5.88;100.00;102274.66;5002304;28;20237;-77
2023/04/20 07:37:47;;;;;;;5.40;2.90;;;;;;;5.88;100.00;102279.91;5023889;28;20050;-76
2023/04/20 07:40:15;;;;;;;5.30;2.88;;;;;;;5.89;100.00;102260.78;5016609;28;20531;-77
2023/04/20 07:42:43;;;;;;;3.03;2.65;;;;;;;5.90;100.00;102270.41;4991533;28;20546;-77
2023/04/20 07:45:12;;;;;;;2.45;2.17;;;;;;;5.89;100.00;102263.41;4973798;28;20050;-77
2023/04/20 07:47:39;;;;;;;4.50;2.53;;;;;;;5.83;100.00;102261.41;4998239;28;20045;-76
2023/04/20 07:50:07;;;;;;;5.18;3.00;;;;;;;5.80;100.00;102261.25;4957362;28;20053;-77
2023/04/20 07:52:35;;;;;;;2.97;2.38;;;;;;;5.80;100.00;102269.09;4997286;28;20053;-78
2023/04/20 07:55:02;;;;;;;6.70;2.53;;;;;;;5.78;100.00;102266.41;4999952;28;20080;-76
2023/04/20 07:57:30;;;;;;;4.40;2.78;;;;;;;5.83;100.00;102267.50;4994221;28;20052;-77
2023/04/20 07:59:58;;;;;;;4.85;2.50;;;;;;;5.87;100.00;102263.31;5001819;28;20053;-76
2023/04/20 08:02:26;;;;;;;7.28;2.70;;;;;;;5.89;100.00;102252.94;5003902;28;20512;-76
2023/04/20 08:04:54;;;;;;;5.22;2.75;;;;;;;5.93;100.00;102266.19;4983055;28;20049;-76
2023/04/20 08:07:22;;;;;;;4.03;2.50;;;;;;;5.94;100.00;102261.88;4994993;28;20049;-77
2023/04/20 08:09:50;;;;;;;3.17;2.70;;;;;;;5.97;100.00;102273.44;5015515;28;20065;-76
2023/04/20 08:12:17;;;;;;;6.00;2.90;;;;;;;5.96;100.00;102275.97;4991310;28;20069;-77
2023/04/20 08:14:44;;;;;;;6.05;3.03;;;;;;;5.98;100.00;102266.47;4977769;28;20400;-76
2023/04/20 08:17:12;;;;;;;3.45;2.75;;;;;;;6.00;100.00;102259.56;5002220;28;20051;-77
2023/04/20 08:19:40;;;;;;;2.63;2.42;;;;;;;5.99;100.00;102269.16;5003754;28;20053;-78
2023/04/20 08:22:13;;;;;;;5.70;2.95;;;;;;;5.98;100.00;102271.69;4997353;28;20042;-79
2023/04/20 08:24:41;;;;;;;5.18;2.50;;;;;;;5.94;100.00;102270.63;5004763;28;20057;-78
2023/04/20 08:27:09;;;;;;;5.72;2.60;;;;;;;5.89;100.00;102266.00;4986352;28;20065;-78
2023/04/20 08:29:39;;;;;;;4.10;2.30;;;;;;;5.85;100.00;102265.84;5025458;28;20060;-78
2023/04/20 08:32:11;;;;;;;4.85;3.20;;;;;;;5.84;100.00;102255.31;4990530;28;20069;-77
2023/04/20 08:34:39;;;;;;;6.00;3.00;;;;;;;5.84;100.00;102258.84;5023071;28;20042;-78
2023/04/20 08:37:07;;;;;;;4.47;2.90;;;;;;;5.84;100.00;102256.25;4959728;28;20046;-78
2023/04/20 08:39:35;;;;;;;6.40;3.00;;;;;;;5.91;100.00;102253.88;5039153;28;20053;-78
2023/04/20 08:42:02;;;;;;;4.65;3.17;;;;;;;5.99;100.00;102260.38;4986884;28;20119;-77
2023/04/20 08:44:30;;;;;;;4.70;3.17;;;;;;;6.10;100.00;102260.88;5012195;28;20443;-78
2023/04/20 08:46:58;;;;;;;3.67;3.10;;;;;;;6.20;100.00;102263.03;5006231;28;20052;-77
2023/04/20 08:49:30;;;;;;;7.93;3.55;;;;;;;6.31;100.00;102274.00;5025707;28;20050;-77
2023/04/20 08:51:58;;;;;;;6.15;3.33;;;;;;;6.39;100.00;102267.34;4964014;28;20042;-77
2023/04/20 08:54:26;;;;;;;7.57;3.58;;;;;;;6.49;100.00;102264.31;5007846;28;20056;-77
2023/04/20 08:56:53;;;;;;;5.78;3.47;;;;;;;6.56;100.00;102253.28;4981165;28;20062;-77
2023/04/20 08:59:20;;;;;;;5.20;2.85;;;;;;;6.63;100.00;102268.44;5016287;28;20460;-78
2023/04/20 09:01:47;;;;;;;4.22;2.83;;;;;;;6.63;100.00;102257.03;4995336;28;20414;-78
2023/04/20 09:04:20;;;;;;;6.38;3.53;;;;;;;6.62;100.00;102269.25;5014361;28;20061;-78
2023/04/20 09:06:50;;;;;;;4.97;3.03;;;;;;;6.62;100.00;102253.53;5015334;28;20053;-77
2023/04/20 09:09:19;;;;;;;9.32;4.55;;;;;;;6.59;100.00;102266.47;4981034;28;20065;-77
2023/04/20 09:11:47;;;;;;;5.65;3.10;;;;;;;6.58;100.00;102251.63;5009789;28;20072;-77
2023/04/20 09:14:15;;;;;;;5.10;3.28;;;;;;;6.60;100.00;102265.66;4992694;28;20041;-77
2023/04/20 09:16:52;;;;;;;7.47;3.40;;;;;;;6.69;100.00;102261.63;4998726;28;20056;-79
2023/04/20 09:19:24;;;;;;;3.30;2.97;;;;;;;6.77;100.00;102260.25;5005612;28;20046;-79
2023/04/20 09:21:53;;;;;;;6.57;3.03;;;;;;;6.80;100.00;102269.09;5027017;28;20050;-78
2023/04/20 09:24:23;;;;;;;4.88;2.95;;;;;;;6.81;100.00;102281.38;4981829;28;20054;-79
2023/04/20 09:26:50;;;;;;;7.45;3.50;;;;;;;6.80;100.00;102257.72;5019242;28;20076;-79
2023/04/20 09:29:22;;;;;;;8.20;3.60;;;;;;;6.85;100.00;102265.81;4974879;28;20057;-79
2023/04/20 09:31:50;;;;;;;7.88;3.92;;;;;;;6.87;100.00;102282.47;5021617;28;20041;-78
2023/04/20 09:34:19;;;;;;;5.78;3.55;;;;;;;6.93;100.00;102275.75;5005851;28;20049;-78
2023/04/20 09:36:49;;;;;;;6.47;3.42;;;;;;;7.02;100.00;102268.25;5030341;28;20049;-79
2023/04/20 09:39:19;;;;;;;9.15;3.90;;;;;;;7.12;100.00;102264.28;4978455;28;20045;-79
2023/04/20 09:41:47;;;;;;;5.72;3.70;;;;;;;7.18;100.00;102258.38;5018582;28;20053;-78
2023/04/20 09:44:16;;;;;;;5.30;3.58;;;;;;;7.17;100.00;102252.25;5005925;28;20061;-78
2023/04/20 09:46:44;;;;;;;6.50;3.40;;;;;;;7.21;100.00;102248.91;5036144;28;20060;-78
2023/04/20 09:49:13;;;;;;;6.38;4.45;;;;;;;7.26;100.00;102254.34;5026275;28;20037;-78
2023/04/20 09:51:44;;;;;;;7.10;3.92;;;;;;;7.33;100.00;102264.22;5031299;28;20038;-78
2023/04/20 09:54:12;;;;;;;6.30;3.55;;;;;;;7.35;100.00;102254.72;4994156;28;20045;-78
2023/04/20 09:56:40;;;;;;;5.50;4.10;;;;;;;7.32;100.00;102259.84;5034208;28;20069;-77
2023/04/20 09:59:08;;;;;;;6.97;3.80;;;;;;;7.37;100.00;102258.28;4988611;28;20049;-79
2023/04/20 10:01:36;;;;;;;5.97;3.55;;;;;;;7.45;100.00;102248.09;5023307;28;20045;-79
2023/04/20 10:04:08;;;;;;;4.75;3.15;;;;;;;7.47;100.00;102245.53;5002666;28;20050;-79
2023/04/20 10:06:36;;;;;;;7.32;3.38;;;;;;;7.47;100.00;102259.53;5029782;28;20053;-79
2023/04/20 10:09:06;;;;;;;7.97;3.88;;;;;;;7.44;100.00;102255.91;5031947;28;20053;-78
2023/04/20 10:11:37;;;;;;;7.40;4.40;;;;;;;7.40;100.00;102247.91;5021987;28;20049;-78
2023/04/20 10:14:24;;;;;;;4.75;4.03;;;;;;;7.37;100.00;102258.28;5010568;28;20716;-78
2023/04/20 10:16:58;;;;;;;7.57;4.00;;;;;;;7.34;100.00;102255.53;5024597;28;20060;-78
2023/04/20 10:19:39;;;;;;;9.18;4.18;;;;;;;7.28;100.00;102267.50;5022298;28;20048;-79
2023/04/20 10:22:11;;;;;;;6.22;3.92;;;;;;;7.21;100.00;102264.66;5022007;28;20065;-78
2023/04/20 10:24:39;;;;;;;5.60;4.10;;;;;;;7.17;100.00;102248.75;5033284;28;20077;-78
2023/04/20 10:27:17;;;;;;;8.10;4.28;;;;;;;7.21;100.00;102248.03;4981064;28;20521;-78
2023/04/20 10:29:44;;;;;;;5.45;3.53;;;;;;;7.20;100.00;102241.91;5024725;28;20060;-79
2023/04/20 10:32:26;;;;;;;6.55;4.03;;;;;;;7.18;100.00;102240.03;5025684;28;20502;-78
2023/04/20 10:35:05;;;;;;;12.32;3.88;;;;;;;7.17;100.00;102264.47;5019589;28;20058;-79
2023/04/20 10:37:34;;;;;;;7.97;3.83;;;;;;;7.16;100.00;102262.69;5007803;28;20053;-79
2023/04/20 10:40:03;;;;;;;7.75;4.70;;;;;;;7.16;100.00;102255.69;5031724;28;20695;-80
2023/04/20 10:42:43;;;;;;;9.23;4.40;;;;;;;7.16;100.00;102247.84;4998243;28;20041;-79
2023/04/20 10:45:12;;;;;;;6.85;4.15;;;;;;;7.15;100.00;102238.19;5006298;28;20049;-78
2023/04/20 10:47:39;;;;;;;4.60;4.03;;;;;;;7.14;100.00;102253.84;5031997;28;20053;-78
2023/04/20 10:50:14;;;;;;;8.25;4.25;;;;;;;7.14;100.00;102260.00;5018622;28;20073;-78
2023/04/20 10:52:43;;;;;;;10.85;4.57;;;;;;;7.14;100.00;102259.09;5021760;28;20426;-78
2023/04/20 10:55:22;;;;;;;9.02;4.35;;;;;;;7.16;100.00;102249.56;5003236;28;20045;-78
2023/04/20 10:57:50;;;;;;;9.57;5.07;;;;;;;7.19;100.00;102247.06;4994055;28;20041;-81
2023/04/20 11:00:25;;;;;;;6.30;3.88;;;;;;;7.22;100.00;102244.56;5016155;28;20075;-79
2023/04/20 11:02:57;;;;;;;11.65;4.72;;;;;;;7.26;100.00;102236.00;5047821;28;20053;-78
2023/04/20 11:05:26;;;;;;;7.88;4.30;;;;;;;7.32;100.00;102233.63;5025803;28;20044;-78
2023/04/20 11:07:58;;;;;;;9.45;5.13;;;;;;;7.35;100.00;102243.31;5027868;28;20408;-79
2023/04/20 11:10:40;;;;;;;9.07;4.95;;;;;;;7.30;100.00;102260.63;5011291;28;20452;-79
2023/04/20 11:13:24;;;;;;;7.97;4.63;;;;;;;7.28;100.00;102244.81;5005421;28;20041;-79
2023/04/20 11:15:51;;;;;;;5.90;4.43;;;;;;;7.39;100.00;102247.84;5030518;28;20042;-79
2023/04/20 11:18:20;;;;;;;6.82;4.57;;;;;;;7.50;100.00;102235.16;5017872;28;20045;-79
2023/04/20 11:20:52;;;;;;;8.48;4.70;;;;;;;7.64;100.00;102226.06;5003391;28;20060;-79
2023/04/20 11:23:21;;;;;;;5.40;4.40;;;;;;;7.83;100.00;102213.63;5029153;28;20045;-78
2023/04/20 11:25:55;;;;;;;7.35;4.82;;;;;;;7.97;100.00;102215.91;5030689;28;20425;-78
2023/04/20 11:28:24;;;;;;;8.45;5.32;;;;;;;8.09;100.00;102233.84;5028663;28;20407;-78
2023/04/20 11:30:52;;;;;;;9.48;4.70;;;;;;;8.11;100.00;102242.66;4966116;28;20042;-78
2023/04/20 11:33:29;;;;;;;7.43;4.25;;;;;;;8.04;100.00;102217.03;4977331;28;20060;-79
2023/04/20 11:35:58;;;;;;;9.68;4.97;;;;;;;8.08;100.00;102216.28;5029559;28;20076;-79